sensor_id;sensor_type;location;lat;lon;timestamp;P1;durP1;ratioP1;P2;durP2;ratioP2
74632;SDS011;63139;52.018;8.552;2023-06-26T00:00:47;8.02;;;7.22;;
74632;SDS011;63139;52.018;8.552;2023-06-26T00:03:15;7.20;;;6.50;;
74632;SDS011;63139;52.018;8.552;2023-06-26T00:05:43;7.32;;;6.40;;
74632;SDS011;63139;52.018;8.552;2023-06-26T00:08:12;7.55;;;6.80;;
74632;SDS011;63139;52.018;8.552;2023-06-26T00:10:40;7.80;;;7.00;;
74632;SDS011;63139;52.018;8.552;2023-06-26T00:13:07;7.60;;;6.90;;
74632;SDS011;63139;52.018;8.552;2023-06-26T00:15:38;7.00;;;6.30;;
74632;SDS011;63139;52.018;8.552;2023-06-26T00:18:06;9.10;;;8.18;;
74632;SDS011;63139;52.018;8.552;2023-06-26T00:20:34;9.43;;;7.65;;
74632;SDS011;63139;52.018;8.552;2023-06-26T00:23:03;8.80;;;7.85;;
74632;SDS011;63139;52.018;8.552;2023-06-26T00:25:35;9.93;;;8.73;;
74632;SDS011;63139;52.018;8.552;2023-06-26T00:28:03;8.70;;;7.80;;
74632;SDS011;63139;52.018;8.552;2023-06-26T00:30:31;8.00;;;7.15;;
74632;SDS011;63139;52.018;8.552;2023-06-26T00:32:58;9.55;;;8.50;;
74632;SDS011;63139;52.018;8.552;2023-06-26T00:35:26;10.27;;;9.05;;
74632;SDS011;63139;52.018;8.552;2023-06-26T00:37:54;9.05;;;8.15;;
74632;SDS011;63139;52.018;8.552;2023-06-26T00:40:22;11.13;;;9.93;;
74632;SDS011;63139;52.018;8.552;2023-06-26T00:42:51;10.07;;;8.80;;
74632;SDS011;63139;52.018;8.552;2023-06-26T00:45:20;10.50;;;9.13;;
74632;SDS011;63139;52.018;8.552;2023-06-26T00:48:07;11.80;;;8.48;;
74632;SDS011;63139;52.018;8.552;2023-06-26T00:50:36;11.02;;;9.18;;
74632;SDS011;63139;52.018;8.552;2023-06-26T00:53:05;8.40;;;7.50;;
74632;SDS011;63139;52.018;8.552;2023-06-26T00:55:33;8.68;;;7.78;;
74632;SDS011;63139;52.018;8.552;2023-06-26T00:58:02;9.30;;;8.32;;
74632;SDS011;63139;52.018;8.552;2023-06-26T01:00:30;9.93;;;7.65;;
74632;SDS011;63139;52.018;8.552;2023-06-26T01:02:59;8.23;;;7.38;;
74632;SDS011;63139;52.018;8.552;2023-06-26T01:05:27;9.63;;;8.30;;
74632;SDS011;63139;52.018;8.552;2023-06-26T01:07:56;11.20;;;8.27;;
74632;SDS011;63139;52.018;8.552;2023-06-26T01:10:25;8.10;;;7.30;;
74632;SDS011;63139;52.018;8.552;2023-06-26T01:12:55;11.57;;;8.32;;
74632;SDS011;63139;52.018;8.552;2023-06-26T01:15:25;8.20;;;7.40;;
74632;SDS011;63139;52.018;8.552;2023-06-26T01:17:53;10.60;;;7.88;;
74632;SDS011;63139;52.018;8.552;2023-06-26T01:20:30;11.25;;;8.77;;
74632;SDS011;63139;52.018;8.552;2023-06-26T01:23:10;7.95;;;7.15;;
74632;SDS011;63139;52.018;8.552;2023-06-26T01:25:45;6.82;;;6.15;;
74632;SDS011;63139;52.018;8.552;2023-06-26T01:28:28;7.38;;;6.15;;
74632;SDS011;63139;52.018;8.552;2023-06-26T01:30:56;6.90;;;6.20;;
74632;SDS011;63139;52.018;8.552;2023-06-26T01:33:25;7.50;;;6.30;;
74632;SDS011;63139;52.018;8.552;2023-06-26T01:35:54;6.82;;;6.05;;
74632;SDS011;63139;52.018;8.552;2023-06-26T01:38:22;7.65;;;6.22;;
74632;SDS011;63139;52.018;8.552;2023-06-26T01:40:50;7.28;;;6.43;;
74632;SDS011;63139;52.018;8.552;2023-06-26T01:43:19;7.05;;;6.35;;
74632;SDS011;63139;52.018;8.552;2023-06-26T01:45:54;7.07;;;6.38;;
74632;SDS011;63139;52.018;8.552;2023-06-26T01:48:27;7.53;;;6.72;;
74632;SDS011;63139;52.018;8.552;2023-06-26T01:51:00;7.50;;;6.65;;
74632;SDS011;63139;52.018;8.552;2023-06-26T01:53:32;8.07;;;7.20;;
74632;SDS011;63139;52.018;8.552;2023-06-26T01:56:05;10.15;;;7.47;;
74632;SDS011;63139;52.018;8.552;2023-06-26T01:58:36;8.88;;;6.80;;
74632;SDS011;63139;52.018;8.552;2023-06-26T02:01:08;8.32;;;7.45;;
74632;SDS011;63139;52.018;8.552;2023-06-26T02:03:36;7.95;;;7.15;;
74632;SDS011;63139;52.018;8.552;2023-06-26T02:06:04;7.90;;;7.10;;
74632;SDS011;63139;52.018;8.552;2023-06-26T02:08:32;8.05;;;7.25;;
74632;SDS011;63139;52.018;8.552;2023-06-26T02:11:00;8.52;;;7.63;;
74632;SDS011;63139;52.018;8.552;2023-06-26T02:13:28;8.63;;;7.32;;
74632;SDS011;63139;52.018;8.552;2023-06-26T02:15:55;11.00;;;8.75;;
74632;SDS011;63139;52.018;8.552;2023-06-26T02:18:25;11.35;;;7.97;;
74632;SDS011;63139;52.018;8.552;2023-06-26T02:20:52;10.30;;;9.20;;
74632;SDS011;63139;52.018;8.552;2023-06-26T02:23:20;10.10;;;7.93;;
74632;SDS011;63139;52.018;8.552;2023-06-26T02:25:48;8.02;;;7.22;;
74632;SDS011;63139;52.018;8.552;2023-06-26T02:28:16;8.38;;;7.53;;
74632;SDS011;63139;52.018;8.552;2023-06-26T02:30:44;9.40;;;7.95;;
74632;SDS011;63139;52.018;8.552;2023-06-26T02:33:12;7.32;;;6.63;;
74632;SDS011;63139;52.018;8.552;2023-06-26T02:35:41;8.05;;;7.07;;
74632;SDS011;63139;52.018;8.552;2023-06-26T02:38:09;8.25;;;7.38;;
74632;SDS011;63139;52.018;8.552;2023-06-26T02:40:39;9.90;;;8.52;;
74632;SDS011;63139;52.018;8.552;2023-06-26T02:43:07;9.43;;;7.90;;
74632;SDS011;63139;52.018;8.552;2023-06-26T02:45:35;8.57;;;7.07;;
74632;SDS011;63139;52.018;8.552;2023-06-26T02:48:03;7.35;;;6.65;;
74632;SDS011;63139;52.018;8.552;2023-06-26T02:50:32;8.57;;;7.07;;
74632;SDS011;63139;52.018;8.552;2023-06-26T02:53:11;7.40;;;6.68;;
74632;SDS011;63139;52.018;8.552;2023-06-26T02:55:43;6.57;;;5.97;;
74632;SDS011;63139;52.018;8.552;2023-06-26T02:58:10;7.07;;;6.38;;
74632;SDS011;63139;52.018;8.552;2023-06-26T03:00:38;7.00;;;6.30;;
74632;SDS011;63139;52.018;8.552;2023-06-26T03:03:12;6.35;;;5.75;;
74632;SDS011;63139;52.018;8.552;2023-06-26T03:05:40;9.93;;;8.20;;
74632;SDS011;63139;52.018;8.552;2023-06-26T03:08:07;9.05;;;7.63;;
74632;SDS011;63139;52.018;8.552;2023-06-26T03:10:37;8.40;;;7.35;;
74632;SDS011;63139;52.018;8.552;2023-06-26T03:13:05;7.47;;;6.68;;
74632;SDS011;63139;52.018;8.552;2023-06-26T03:15:33;10.27;;;6.82;;
74632;SDS011;63139;52.018;8.552;2023-06-26T03:18:00;9.68;;;8.35;;
74632;SDS011;63139;52.018;8.552;2023-06-26T03:20:29;8.63;;;7.57;;
74632;SDS011;63139;52.018;8.552;2023-06-26T03:22:57;7.45;;;6.75;;
74632;SDS011;63139;52.018;8.552;2023-06-26T03:25:25;9.45;;;7.60;;
74632;SDS011;63139;52.018;8.552;2023-06-26T03:28:11;8.30;;;7.13;;
74632;SDS011;63139;52.018;8.552;2023-06-26T03:30:39;9.15;;;7.22;;
74632;SDS011;63139;52.018;8.552;2023-06-26T03:33:07;8.35;;;6.22;;
74632;SDS011;63139;52.018;8.552;2023-06-26T03:35:36;9.60;;;8.60;;
74632;SDS011;63139;52.018;8.552;2023-06-26T03:38:04;8.07;;;7.28;;
74632;SDS011;63139;52.018;8.552;2023-06-26T03:40:32;7.80;;;6.47;;
74632;SDS011;63139;52.018;8.552;2023-06-26T03:43:00;7.25;;;6.20;;
74632;SDS011;63139;52.018;8.552;2023-06-26T03:45:39;7.70;;;6.82;;
74632;SDS011;63139;52.018;8.552;2023-06-26T03:48:06;6.50;;;5.88;;
74632;SDS011;63139;52.018;8.552;2023-06-26T03:50:35;6.35;;;5.75;;
74632;SDS011;63139;52.018;8.552;2023-06-26T03:53:04;5.88;;;5.20;;
74632;SDS011;63139;52.018;8.552;2023-06-26T03:55:32;6.93;;;5.47;;
74632;SDS011;63139;52.018;8.552;2023-06-26T03:58:00;5.85;;;5.07;;
74632;SDS011;63139;52.018;8.552;2023-06-26T04:00:28;5.95;;;5.35;;
74632;SDS011;63139;52.018;8.552;2023-06-26T04:02:58;5.47;;;4.97;;
74632;SDS011;63139;52.018;8.552;2023-06-26T04:05:25;5.63;;;4.85;;
74632;SDS011;63139;52.018;8.552;2023-06-26T04:07:54;4.85;;;4.45;;
74632;SDS011;63139;52.018;8.552;2023-06-26T04:10:22;5.55;;;5.05;;
74632;SDS011;63139;52.018;8.552;2023-06-26T04:12:50;5.93;;;5.32;;
74632;SDS011;63139;52.018;8.552;2023-06-26T04:15:18;5.97;;;5.22;;
74632;SDS011;63139;52.018;8.552;2023-06-26T04:17:45;6.85;;;5.50;;
74632;SDS011;63139;52.018;8.552;2023-06-26T04:20:15;5.63;;;5.13;;
74632;SDS011;63139;52.018;8.552;2023-06-26T04:22:43;5.40;;;4.65;;
74632;SDS011;63139;52.018;8.552;2023-06-26T04:25:11;5.85;;;5.15;;
74632;SDS011;63139;52.018;8.552;2023-06-26T04:27:39;5.57;;;4.97;;
74632;SDS011;63139;52.018;8.552;2023-06-26T04:30:09;5.30;;;4.80;;
74632;SDS011;63139;52.018;8.552;2023-06-26T04:32:38;5.85;;;5.10;;
74632;SDS011;63139;52.018;8.552;2023-06-26T04:35:06;5.72;;;4.80;;
74632;SDS011;63139;52.018;8.552;2023-06-26T04:37:37;5.95;;;4.82;;
74632;SDS011;63139;52.018;8.552;2023-06-26T04:40:06;5.13;;;4.35;;
74632;SDS011;63139;52.018;8.552;2023-06-26T04:42:38;5.90;;;4.72;;
74632;SDS011;63139;52.018;8.552;2023-06-26T04:45:06;7.50;;;4.88;;
74632;SDS011;63139;52.018;8.552;2023-06-26T04:47:34;4.80;;;4.30;;
74632;SDS011;63139;52.018;8.552;2023-06-26T04:50:02;5.13;;;4.60;;
74632;SDS011;63139;52.018;8.552;2023-06-26T04:52:30;4.97;;;4.47;;
74632;SDS011;63139;52.018;8.552;2023-06-26T04:54:59;5.65;;;4.88;;
74632;SDS011;63139;52.018;8.552;2023-06-26T04:57:27;5.47;;;4.97;;
74632;SDS011;63139;52.018;8.552;2023-06-26T04:59:55;6.20;;;5.25;;
74632;SDS011;63139;52.018;8.552;2023-06-26T05:02:23;5.53;;;4.97;;
74632;SDS011;63139;52.018;8.552;2023-06-26T05:04:53;5.65;;;4.70;;
74632;SDS011;63139;52.018;8.552;2023-06-26T05:07:21;6.50;;;5.10;;
74632;SDS011;63139;52.018;8.552;2023-06-26T05:09:48;5.78;;;4.75;;
74632;SDS011;63139;52.018;8.552;2023-06-26T05:12:18;5.65;;;4.97;;
74632;SDS011;63139;52.018;8.552;2023-06-26T05:14:45;7.25;;;4.78;;
74632;SDS011;63139;52.018;8.552;2023-06-26T05:17:14;4.97;;;4.40;;
74632;SDS011;63139;52.018;8.552;2023-06-26T05:19:42;5.65;;;4.80;;
74632;SDS011;63139;52.018;8.552;2023-06-26T05:22:09;6.93;;;4.93;;
74632;SDS011;63139;52.018;8.552;2023-06-26T05:24:40;5.68;;;5.05;;
74632;SDS011;63139;52.018;8.552;2023-06-26T05:27:09;6.03;;;5.38;;
74632;SDS011;63139;52.018;8.552;2023-06-26T05:29:47;6.45;;;5.22;;
74632;SDS011;63139;52.018;8.552;2023-06-26T05:32:16;7.50;;;5.40;;
74632;SDS011;63139;52.018;8.552;2023-06-26T05:34:45;6.28;;;4.80;;
74632;SDS011;63139;52.018;8.552;2023-06-26T05:37:16;5.97;;;4.90;;
74632;SDS011;63139;52.018;8.552;2023-06-26T05:39:48;5.63;;;5.03;;
74632;SDS011;63139;52.018;8.552;2023-06-26T05:42:16;8.02;;;5.40;;
74632;SDS011;63139;52.018;8.552;2023-06-26T05:44:44;6.93;;;5.20;;
74632;SDS011;63139;52.018;8.552;2023-06-26T05:47:14;6.72;;;5.07;;
74632;SDS011;63139;52.018;8.552;2023-06-26T05:49:41;7.57;;;5.00;;
74632;SDS011;63139;52.018;8.552;2023-06-26T05:52:10;7.00;;;5.45;;
74632;SDS011;63139;52.018;8.552;2023-06-26T05:54:39;9.88;;;5.93;;
74632;SDS011;63139;52.018;8.552;2023-06-26T05:57:07;6.63;;;5.38;;
74632;SDS011;63139;52.018;8.552;2023-06-26T05:59:36;6.43;;;5.32;;
74632;SDS011;63139;52.018;8.552;2023-06-26T06:02:08;5.97;;;5.32;;
74632;SDS011;63139;52.018;8.552;2023-06-26T06:04:36;8.45;;;6.18;;
74632;SDS011;63139;52.018;8.552;2023-06-26T06:07:04;6.40;;;5.80;;
74632;SDS011;63139;52.018;8.552;2023-06-26T06:09:32;9.20;;;5.72;;
74632;SDS011;63139;52.018;8.552;2023-06-26T06:12:00;10.50;;;6.18;;
74632;SDS011;63139;52.018;8.552;2023-06-26T06:14:30;9.65;;;6.03;;
74632;SDS011;63139;52.018;8.552;2023-06-26T06:16:57;6.97;;;5.80;;
74632;SDS011;63139;52.018;8.552;2023-06-26T06:19:27;7.32;;;6.43;;
74632;SDS011;63139;52.018;8.552;2023-06-26T06:21:55;9.05;;;5.68;;
74632;SDS011;63139;52.018;8.552;2023-06-26T06:24:23;8.13;;;5.93;;
74632;SDS011;63139;52.018;8.552;2023-06-26T06:26:50;10.57;;;6.82;;
74632;SDS011;63139;52.018;8.552;2023-06-26T06:29:18;9.82;;;7.00;;
74632;SDS011;63139;52.018;8.552;2023-06-26T06:31:46;9.20;;;5.70;;
74632;SDS011;63139;52.018;8.552;2023-06-26T06:34:14;8.25;;;6.22;;
74632;SDS011;63139;52.018;8.552;2023-06-26T06:36:43;7.80;;;6.00;;
74632;SDS011;63139;52.018;8.552;2023-06-26T06:39:11;8.90;;;6.55;;
74632;SDS011;63139;52.018;8.552;2023-06-26T06:41:39;11.23;;;6.53;;
74632;SDS011;63139;52.018;8.552;2023-06-26T06:44:06;7.95;;;5.95;;
74632;SDS011;63139;52.018;8.552;2023-06-26T06:46:34;7.90;;;6.57;;
74632;SDS011;63139;52.018;8.552;2023-06-26T06:49:02;11.32;;;6.57;;
74632;SDS011;63139;52.018;8.552;2023-06-26T06:51:30;9.88;;;7.00;;
74632;SDS011;63139;52.018;8.552;2023-06-26T06:53:59;10.68;;;6.65;;
74632;SDS011;63139;52.018;8.552;2023-06-26T06:56:28;10.55;;;7.10;;
74632;SDS011;63139;52.018;8.552;2023-06-26T06:58:55;9.63;;;6.95;;
74632;SDS011;63139;52.018;8.552;2023-06-26T07:01:23;9.02;;;6.63;;
74632;SDS011;63139;52.018;8.552;2023-06-26T07:03:51;8.13;;;7.15;;
74632;SDS011;63139;52.018;8.552;2023-06-26T07:06:20;8.80;;;7.05;;
74632;SDS011;63139;52.018;8.552;2023-06-26T07:08:48;10.63;;;8.25;;
74632;SDS011;63139;52.018;8.552;2023-06-26T07:11:17;10.25;;;7.88;;
74632;SDS011;63139;52.018;8.552;2023-06-26T07:13:45;8.98;;;7.90;;
74632;SDS011;63139;52.018;8.552;2023-06-26T07:16:13;9.45;;;6.68;;
74632;SDS011;63139;52.018;8.552;2023-06-26T07:18:41;9.18;;;7.10;;
74632;SDS011;63139;52.018;8.552;2023-06-26T07:21:09;11.23;;;8.00;;
74632;SDS011;63139;52.018;8.552;2023-06-26T07:23:37;13.02;;;8.13;;
74632;SDS011;63139;52.018;8.552;2023-06-26T07:26:05;8.95;;;6.93;;
74632;SDS011;63139;52.018;8.552;2023-06-26T07:28:34;12.07;;;8.13;;
74632;SDS011;63139;52.018;8.552;2023-06-26T07:31:02;13.20;;;7.68;;
74632;SDS011;63139;52.018;8.552;2023-06-26T07:33:30;8.90;;;6.90;;
74632;SDS011;63139;52.018;8.552;2023-06-26T07:35:58;7.93;;;7.00;;
74632;SDS011;63139;52.018;8.552;2023-06-26T07:38:25;12.57;;;8.43;;
74632;SDS011;63139;52.018;8.552;2023-06-26T07:40:53;15.77;;;7.93;;
74632;SDS011;63139;52.018;8.552;2023-06-26T07:43:21;9.70;;;7.25;;
74632;SDS011;63139;52.018;8.552;2023-06-26T07:45:50;9.77;;;7.97;;
74632;SDS011;63139;52.018;8.552;2023-06-26T07:48:19;8.75;;;7.05;;
74632;SDS011;63139;52.018;8.552;2023-06-26T07:50:47;9.43;;;7.07;;
74632;SDS011;63139;52.018;8.552;2023-06-26T07:53:15;12.43;;;7.80;;
74632;SDS011;63139;52.018;8.552;2023-06-26T07:55:43;10.13;;;6.97;;
74632;SDS011;63139;52.018;8.552;2023-06-26T07:58:11;9.10;;;6.60;;
74632;SDS011;63139;52.018;8.552;2023-06-26T08:00:39;10.57;;;7.00;;
74632;SDS011;63139;52.018;8.552;2023-06-26T08:03:09;9.88;;;6.60;;
74632;SDS011;63139;52.018;8.552;2023-06-26T08:05:50;8.02;;;6.38;;
74632;SDS011;63139;52.018;8.552;2023-06-26T08:08:18;10.68;;;7.03;;
74632;SDS011;63139;52.018;8.552;2023-06-26T08:10:46;11.88;;;7.03;;
74632;SDS011;63139;52.018;8.552;2023-06-26T08:13:14;16.65;;;6.88;;
74632;SDS011;63139;52.018;8.552;2023-06-26T08:15:42;8.68;;;6.43;;
74632;SDS011;63139;52.018;8.552;2023-06-26T08:18:11;10.82;;;6.72;;
74632;SDS011;63139;52.018;8.552;2023-06-26T08:20:39;12.02;;;6.70;;
74632;SDS011;63139;52.018;8.552;2023-06-26T08:23:07;8.10;;;5.78;;
74632;SDS011;63139;52.018;8.552;2023-06-26T08:25:35;10.73;;;5.95;;
74632;SDS011;63139;52.018;8.552;2023-06-26T08:28:03;9.75;;;5.68;;
74632;SDS011;63139;52.018;8.552;2023-06-26T08:30:31;8.82;;;6.10;;
74632;SDS011;63139;52.018;8.552;2023-06-26T08:32:59;9.50;;;5.68;;
74632;SDS011;63139;52.018;8.552;2023-06-26T08:35:29;6.50;;;5.38;;
74632;SDS011;63139;52.018;8.552;2023-06-26T08:37:56;10.05;;;5.65;;
74632;SDS011;63139;52.018;8.552;2023-06-26T08:40:24;9.90;;;5.53;;
74632;SDS011;63139;52.018;8.552;2023-06-26T08:42:53;7.57;;;5.30;;
74632;SDS011;63139;52.018;8.552;2023-06-26T08:45:22;12.85;;;6.00;;
74632;SDS011;63139;52.018;8.552;2023-06-26T08:47:51;9.18;;;5.50;;
74632;SDS011;63139;52.018;8.552;2023-06-26T08:50:22;13.55;;;6.68;;
74632;SDS011;63139;52.018;8.552;2023-06-26T08:52:53;8.57;;;5.53;;
74632;SDS011;63139;52.018;8.552;2023-06-26T08:55:30;7.32;;;5.40;;
74632;SDS011;63139;52.018;8.552;2023-06-26T08:58:01;11.48;;;6.40;;
74632;SDS011;63139;52.018;8.552;2023-06-26T09:00:29;12.23;;;6.93;;
74632;SDS011;63139;52.018;8.552;2023-06-26T09:02:57;9.38;;;6.10;;
74632;SDS011;63139;52.018;8.552;2023-06-26T09:05:26;11.93;;;6.75;;
74632;SDS011;63139;52.018;8.552;2023-06-26T09:07:56;11.05;;;6.28;;
74632;SDS011;63139;52.018;8.552;2023-06-26T09:10:24;12.65;;;6.63;;
74632;SDS011;63139;52.018;8.552;2023-06-26T09:12:54;13.23;;;7.05;;
74632;SDS011;63139;52.018;8.552;2023-06-26T09:15:23;8.90;;;6.07;;
74632;SDS011;63139;52.018;8.552;2023-06-26T09:17:53;11.95;;;6.32;;
74632;SDS011;63139;52.018;8.552;2023-06-26T09:20:25;13.52;;;6.50;;
74632;SDS011;63139;52.018;8.552;2023-06-26T09:22:56;12.85;;;6.40;;
74632;SDS011;63139;52.018;8.552;2023-06-26T09:25:24;18.33;;;6.38;;
74632;SDS011;63139;52.018;8.552;2023-06-26T09:27:52;10.93;;;5.38;;
74632;SDS011;63139;52.018;8.552;2023-06-26T09:30:20;8.95;;;5.38;;
74632;SDS011;63139;52.018;8.552;2023-06-26T09:32:48;10.43;;;5.82;;
74632;SDS011;63139;52.018;8.552;2023-06-26T09:35:17;9.40;;;5.38;;
74632;SDS011;63139;52.018;8.552;2023-06-26T09:37:45;8.35;;;5.50;;
74632;SDS011;63139;52.018;8.552;2023-06-26T09:40:14;10.70;;;6.22;;
74632;SDS011;63139;52.018;8.552;2023-06-26T09:42:43;11.48;;;6.43;;
74632;SDS011;63139;52.018;8.552;2023-06-26T09:45:17;7.78;;;5.15;;
74632;SDS011;63139;52.018;8.552;2023-06-26T09:47:46;10.38;;;5.90;;
74632;SDS011;63139;52.018;8.552;2023-06-26T09:50:21;11.23;;;5.47;;
74632;SDS011;63139;52.018;8.552;2023-06-26T09:52:50;10.80;;;5.85;;
74632;SDS011;63139;52.018;8.552;2023-06-26T09:55:20;17.27;;;5.50;;
74632;SDS011;63139;52.018;8.552;2023-06-26T09:57:49;11.52;;;5.60;;
74632;SDS011;63139;52.018;8.552;2023-06-26T10:00:18;11.32;;;5.90;;
74632;SDS011;63139;52.018;8.552;2023-06-26T10:02:46;12.48;;;6.03;;
74632;SDS011;63139;52.018;8.552;2023-06-26T10:05:15;17.30;;;6.95;;
74632;SDS011;63139;52.018;8.552;2023-06-26T10:07:43;38.20;;;6.85;;
74632;SDS011;63139;52.018;8.552;2023-06-26T10:10:12;10.07;;;5.50;;
74632;SDS011;63139;52.018;8.552;2023-06-26T10:12:42;10.75;;;5.88;;
74632;SDS011;63139;52.018;8.552;2023-06-26T10:15:15;10.70;;;5.47;;
74632;SDS011;63139;52.018;8.552;2023-06-26T10:17:44;12.02;;;5.30;;
74632;SDS011;63139;52.018;8.552;2023-06-26T10:20:14;7.68;;;5.25;;
74632;SDS011;63139;52.018;8.552;2023-06-26T10:22:44;9.98;;;5.65;;
74632;SDS011;63139;52.018;8.552;2023-06-26T10:25:14;11.95;;;5.45;;
74632;SDS011;63139;52.018;8.552;2023-06-26T10:27:48;13.90;;;6.13;;
74632;SDS011;63139;52.018;8.552;2023-06-26T10:30:22;11.55;;;5.65;;
74632;SDS011;63139;52.018;8.552;2023-06-26T10:32:54;9.25;;;5.65;;
74632;SDS011;63139;52.018;8.552;2023-06-26T10:35:23;8.73;;;5.35;;
74632;SDS011;63139;52.018;8.552;2023-06-26T10:37:51;12.65;;;5.00;;
74632;SDS011;63139;52.018;8.552;2023-06-26T10:40:24;7.72;;;4.30;;
74632;SDS011;63139;52.018;8.552;2023-06-26T10:43:06;7.95;;;4.65;;
74632;SDS011;63139;52.018;8.552;2023-06-26T10:45:35;6.65;;;4.45;;
74632;SDS011;63139;52.018;8.552;2023-06-26T10:48:03;7.63;;;4.55;;
74632;SDS011;63139;52.018;8.552;2023-06-26T10:50:32;5.85;;;4.32;;
74632;SDS011;63139;52.018;8.552;2023-06-26T10:53:09;7.63;;;4.90;;
74632;SDS011;63139;52.018;8.552;2023-06-26T10:55:41;10.07;;;5.30;;
74632;SDS011;63139;52.018;8.552;2023-06-26T11:03:46;8.40;;;4.53;;
74632;SDS011;63139;52.018;8.552;2023-06-26T11:06:20;6.50;;;4.50;;
74632;SDS011;63139;52.018;8.552;2023-06-26T11:08:50;8.60;;;4.50;;
74632;SDS011;63139;52.018;8.552;2023-06-26T11:11:21;10.32;;;4.10;;
74632;SDS011;63139;52.018;8.552;2023-06-26T11:14:11;8.18;;;4.20;;
74632;SDS011;63139;52.018;8.552;2023-06-26T11:16:40;6.07;;;3.83;;
74632;SDS011;63139;52.018;8.552;2023-06-26T11:19:10;7.28;;;4.28;;
74632;SDS011;63139;52.018;8.552;2023-06-26T11:21:38;4.88;;;3.75;;
74632;SDS011;63139;52.018;8.552;2023-06-26T11:24:07;11.38;;;4.15;;
74632;SDS011;63139;52.018;8.552;2023-06-26T11:26:37;14.73;;;4.18;;
74632;SDS011;63139;52.018;8.552;2023-06-26T11:29:05;6.88;;;3.40;;
74632;SDS011;63139;52.018;8.552;2023-06-26T11:31:35;9.27;;;3.50;;
74632;SDS011;63139;52.018;8.552;2023-06-26T11:34:05;5.78;;;3.20;;
74632;SDS011;63139;52.018;8.552;2023-06-26T11:36:35;6.53;;;3.50;;
74632;SDS011;63139;52.018;8.552;2023-06-26T11:39:04;5.78;;;3.40;;
74632;SDS011;63139;52.018;8.552;2023-06-26T11:41:34;5.85;;;3.25;;
74632;SDS011;63139;52.018;8.552;2023-06-26T11:44:02;7.55;;;3.20;;
74632;SDS011;63139;52.018;8.552;2023-06-26T11:46:31;5.88;;;3.10;;
74632;SDS011;63139;52.018;8.552;2023-06-26T11:49:02;7.82;;;2.63;;
74632;SDS011;63139;52.018;8.552;2023-06-26T11:51:30;4.25;;;2.88;;
74632;SDS011;63139;52.018;8.552;2023-06-26T11:54:00;4.20;;;2.85;;
74632;SDS011;63139;52.018;8.552;2023-06-26T11:56:29;7.03;;;2.58;;
74632;SDS011;63139;52.018;8.552;2023-06-26T11:58:58;5.40;;;3.00;;
74632;SDS011;63139;52.018;8.552;2023-06-26T12:01:30;5.40;;;2.80;;
74632;SDS011;63139;52.018;8.552;2023-06-26T12:04:02;6.00;;;2.67;;
74632;SDS011;63139;52.018;8.552;2023-06-26T12:06:33;5.03;;;2.60;;
74632;SDS011;63139;52.018;8.552;2023-06-26T12:09:01;3.42;;;2.50;;
74632;SDS011;63139;52.018;8.552;2023-06-26T12:11:32;9.38;;;3.08;;
74632;SDS011;63139;52.018;8.552;2023-06-26T12:14:01;3.63;;;2.60;;
74632;SDS011;63139;52.018;8.552;2023-06-26T12:16:30;7.32;;;2.42;;
74632;SDS011;63139;52.018;8.552;2023-06-26T12:19:01;4.15;;;2.60;;
74632;SDS011;63139;52.018;8.552;2023-06-26T12:21:33;3.45;;;2.60;;
74632;SDS011;63139;52.018;8.552;2023-06-26T12:24:13;4.63;;;2.55;;
74632;SDS011;63139;52.018;8.552;2023-06-26T12:26:42;4.40;;;2.78;;
74632;SDS011;63139;52.018;8.552;2023-06-26T12:29:11;3.97;;;2.60;;
74632;SDS011;63139;52.018;8.552;2023-06-26T12:31:40;3.90;;;2.72;;
74632;SDS011;63139;52.018;8.552;2023-06-26T12:34:11;5.88;;;2.50;;
74632;SDS011;63139;52.018;8.552;2023-06-26T12:36:43;5.13;;;2.80;;
74632;SDS011;63139;52.018;8.552;2023-06-26T12:39:13;5.35;;;2.63;;
74632;SDS011;63139;52.018;8.552;2023-06-26T12:41:45;6.57;;;2.55;;
74632;SDS011;63139;52.018;8.552;2023-06-26T12:44:19;4.95;;;2.53;;
74632;SDS011;63139;52.018;8.552;2023-06-26T12:46:49;5.15;;;2.60;;
74632;SDS011;63139;52.018;8.552;2023-06-26T12:49:28;3.88;;;2.65;;
74632;SDS011;63139;52.018;8.552;2023-06-26T12:51:58;3.58;;;2.40;;
74632;SDS011;63139;52.018;8.552;2023-06-26T12:54:26;4.47;;;2.70;;
74632;SDS011;63139;52.018;8.552;2023-06-26T12:56:54;2.92;;;2.35;;
74632;SDS011;63139;52.018;8.552;2023-06-26T12:59:22;4.20;;;2.80;;
74632;SDS011;63139;52.018;8.552;2023-06-26T13:01:50;3.88;;;2.63;;
74632;SDS011;63139;52.018;8.552;2023-06-26T13:04:18;4.60;;;2.55;;
74632;SDS011;63139;52.018;8.552;2023-06-26T13:06:47;3.60;;;2.40;;
74632;SDS011;63139;52.018;8.552;2023-06-26T13:09:16;3.60;;;2.40;;
74632;SDS011;63139;52.018;8.552;2023-06-26T13:11:44;6.38;;;2.78;;
74632;SDS011;63139;52.018;8.552;2023-06-26T13:14:12;6.40;;;2.63;;
74632;SDS011;63139;52.018;8.552;2023-06-26T13:16:40;6.28;;;2.90;;
74632;SDS011;63139;52.018;8.552;2023-06-26T13:19:08;4.22;;;2.67;;
74632;SDS011;63139;52.018;8.552;2023-06-26T13:21:36;4.20;;;2.70;;
74632;SDS011;63139;52.018;8.552;2023-06-26T13:24:06;4.68;;;2.58;;
74632;SDS011;63139;52.018;8.552;2023-06-26T13:26:34;5.40;;;2.50;;
74632;SDS011;63139;52.018;8.552;2023-06-26T13:29:04;6.10;;;2.90;;
74632;SDS011;63139;52.018;8.552;2023-06-26T13:31:32;3.83;;;2.50;;
74632;SDS011;63139;52.018;8.552;2023-06-26T13:34:01;5.70;;;2.65;;
74632;SDS011;63139;52.018;8.552;2023-06-26T13:36:31;3.00;;;2.70;;
74632;SDS011;63139;52.018;8.552;2023-06-26T13:39:01;8.18;;;2.63;;
74632;SDS011;63139;52.018;8.552;2023-06-26T13:41:31;5.72;;;2.38;;
74632;SDS011;63139;52.018;8.552;2023-06-26T13:43:58;4.32;;;2.60;;
74632;SDS011;63139;52.018;8.552;2023-06-26T13:46:45;8.80;;;2.75;;
74632;SDS011;63139;52.018;8.552;2023-06-26T13:49:14;9.35;;;2.95;;
74632;SDS011;63139;52.018;8.552;2023-06-26T13:51:42;4.65;;;2.95;;
74632;SDS011;63139;52.018;8.552;2023-06-26T13:54:13;6.45;;;2.55;;
74632;SDS011;63139;52.018;8.552;2023-06-26T13:56:42;2.47;;;2.28;;
74632;SDS011;63139;52.018;8.552;2023-06-26T13:59:10;4.78;;;2.50;;
74632;SDS011;63139;52.018;8.552;2023-06-26T14:01:39;11.23;;;2.88;;
74632;SDS011;63139;52.018;8.552;2023-06-26T14:04:09;6.80;;;2.72;;
74632;SDS011;63139;52.018;8.552;2023-06-26T14:06:37;4.25;;;2.78;;
74632;SDS011;63139;52.018;8.552;2023-06-26T14:09:04;4.75;;;2.67;;
74632;SDS011;63139;52.018;8.552;2023-06-26T14:11:33;4.60;;;2.60;;
74632;SDS011;63139;52.018;8.552;2023-06-26T14:14:02;11.05;;;3.55;;
74632;SDS011;63139;52.018;8.552;2023-06-26T14:16:30;3.60;;;2.78;;
74632;SDS011;63139;52.018;8.552;2023-06-26T14:18:58;3.60;;;2.60;;
74632;SDS011;63139;52.018;8.552;2023-06-26T14:21:26;5.00;;;2.47;;
74632;SDS011;63139;52.018;8.552;2023-06-26T14:23:54;6.22;;;2.67;;
74632;SDS011;63139;52.018;8.552;2023-06-26T14:26:22;6.05;;;2.50;;
74632;SDS011;63139;52.018;8.552;2023-06-26T14:28:50;8.20;;;2.45;;
74632;SDS011;63139;52.018;8.552;2023-06-26T14:31:19;7.47;;;2.50;;
74632;SDS011;63139;52.018;8.552;2023-06-26T14:33:47;4.40;;;2.17;;
74632;SDS011;63139;52.018;8.552;2023-06-26T14:36:15;3.53;;;2.20;;
74632;SDS011;63139;52.018;8.552;2023-06-26T14:38:43;4.47;;;2.35;;
74632;SDS011;63139;52.018;8.552;2023-06-26T14:41:11;7.35;;;2.50;;
74632;SDS011;63139;52.018;8.552;2023-06-26T14:43:40;4.75;;;2.53;;
74632;SDS011;63139;52.018;8.552;2023-06-26T14:46:08;7.03;;;2.10;;
74632;SDS011;63139;52.018;8.552;2023-06-26T14:48:40;3.20;;;2.05;;
74632;SDS011;63139;52.018;8.552;2023-06-26T14:51:08;5.32;;;2.08;;
74632;SDS011;63139;52.018;8.552;2023-06-26T14:53:36;5.68;;;2.25;;
74632;SDS011;63139;52.018;8.552;2023-06-26T14:56:04;3.15;;;1.90;;
74632;SDS011;63139;52.018;8.552;2023-06-26T14:58:34;3.40;;;2.22;;
74632;SDS011;63139;52.018;8.552;2023-06-26T15:01:02;4.20;;;2.20;;
74632;SDS011;63139;52.018;8.552;2023-06-26T15:03:30;2.70;;;2.03;;